createdAt,value
2019-05-05T00:02:35.103Z,4.40
2019-05-05T00:05:14.966Z,4.30
2019-05-05T00:07:45.672Z,4.30
2019-05-05T00:10:24.825Z,4.30
2019-05-05T00:13:14.918Z,4.30
2019-05-05T00:16:04.674Z,4.30
2019-05-05T00:18:35.404Z,4.30
2019-05-05T00:21:06.129Z,4.30
2019-05-05T00:23:36.956Z,4.30
2019-05-05T00:26:07.443Z,4.30
2019-05-05T00:28:39.032Z,4.40
2019-05-05T00:31:10.275Z,4.30
2019-05-05T00:33:41.070Z,4.40
2019-05-05T00:36:11.471Z,4.40
2019-05-05T00:38:41.884Z,4.50
2019-05-05T00:41:12.284Z,4.50
2019-05-05T00:43:44.956Z,4.40
2019-05-05T00:46:24.552Z,4.40
2019-05-05T00:48:55.260Z,4.40
2019-05-05T00:51:26.166Z,4.30
2019-05-05T00:53:57.148Z,4.30
2019-05-05T00:56:27.614Z,4.40
2019-05-05T00:59:01.984Z,4.40
2019-05-05T01:01:55.291Z,4.40
2019-05-05T01:04:32.745Z,4.30
2019-05-05T01:07:04.970Z,4.20
2019-05-05T01:09:37.493Z,4.20
2019-05-05T01:12:08.704Z,4.20
2019-05-05T01:14:39.666Z,4.20
2019-05-05T01:17:10.180Z,4.30
2019-05-05T01:19:40.691Z,4.30
2019-05-05T01:22:11.770Z,4.20
2019-05-05T01:24:42.312Z,4.30
2019-05-05T01:27:14.751Z,4.30
2019-05-05T01:29:45.278Z,4.40
2019-05-05T01:32:21.847Z,4.30
2019-05-05T01:34:54.790Z,4.30
2019-05-05T01:37:50.261Z,4.30
2019-05-05T01:40:40.812Z,4.30
2019-05-05T01:43:12.209Z,4.30
2019-05-05T01:45:45.224Z,4.30
2019-05-05T01:48:15.254Z,4.30
2019-05-05T01:50:45.804Z,4.40
2019-05-05T01:53:16.813Z,4.30
2019-05-05T01:55:48.428Z,4.40
2019-05-05T01:58:19.892Z,4.40
2019-05-05T02:00:50.473Z,4.50
2019-05-05T02:03:21.529Z,4.40
2019-05-05T02:05:52.043Z,4.30
2019-05-05T02:08:24.417Z,4.30
2019-05-05T02:10:54.915Z,4.30
2019-05-05T02:13:25.417Z,4.40
2019-05-05T02:15:56.145Z,4.40
2019-05-05T02:18:26.665Z,4.40
2019-05-05T02:21:05.198Z,4.40
2019-05-05T02:23:37.811Z,4.40
2019-05-05T02:26:09.318Z,4.30
2019-05-05T02:29:04.988Z,4.30
2019-05-05T02:31:58.880Z,4.30
2019-05-05T02:34:31.993Z,4.20
2019-05-05T02:37:05.455Z,4.20
2019-05-05T02:39:39.321Z,4.20
2019-05-05T02:42:08.198Z,4.20
2019-05-05T02:44:39.406Z,4.20
2019-05-05T02:47:26.646Z,4.20
2019-05-05T02:50:00.091Z,4.20
2019-05-05T02:52:34.669Z,4.20
2019-05-05T02:55:06.142Z,4.20
2019-05-05T02:57:38.814Z,4.20
2019-05-05T03:00:28.807Z,4.30
2019-05-05T03:03:01.113Z,4.30
2019-05-05T03:05:31.784Z,4.30
2019-05-05T03:08:04.708Z,4.30
2019-05-05T03:10:35.394Z,4.30
2019-05-05T03:13:06.728Z,4.20
2019-05-05T03:16:25.550Z,4.20
2019-05-05T03:18:57.262Z,4.10
2019-05-05T03:21:28.251Z,4.20
2019-05-05T03:23:58.891Z,4.20
2019-05-05T03:26:30.293Z,4.10
2019-05-05T03:29:02.033Z,4.20
2019-05-05T03:31:35.251Z,4.20
2019-05-05T03:34:06.358Z,4.10
2019-05-05T03:36:37.306Z,4.10
2019-05-05T03:39:09.861Z,4.20
2019-05-05T03:41:55.680Z,4.20
2019-05-05T03:44:30.242Z,4.20
2019-05-05T03:47:01.065Z,4.20
2019-05-05T03:49:33.791Z,4.20
2019-05-05T03:52:05.025Z,4.20
2019-05-05T03:54:35.579Z,4.20
2019-05-05T03:57:08.998Z,4.20
2019-05-05T03:59:44.312Z,4.20
2019-05-05T04:02:26.313Z,4.20
2019-05-05T04:04:58.488Z,4.20
2019-05-05T04:07:29.016Z,4.20
2019-05-05T04:10:00.318Z,4.20
2019-05-05T04:12:31.680Z,4.20
2019-05-05T04:15:03.669Z,4.20
2019-05-05T04:17:44.555Z,4.20
2019-05-05T04:20:33.912Z,4.20
2019-05-05T04:23:04.379Z,4.20
2019-05-05T04:25:35.241Z,4.20
2019-05-05T04:28:06.782Z,4.20
2019-05-05T04:30:37.772Z,4.10
2019-05-05T04:33:08.332Z,4.20
2019-05-05T04:35:38.827Z,4.20
2019-05-05T04:38:09.728Z,4.20
2019-05-05T04:40:40.240Z,4.10
2019-05-05T04:43:10.817Z,4.20
2019-05-05T04:45:43.470Z,4.20
2019-05-05T04:48:28.852Z,4.20
2019-05-05T04:51:18.250Z,4.10
2019-05-05T04:54:10.648Z,4.10
2019-05-05T04:56:41.251Z,4.20
2019-05-05T04:59:11.775Z,4.30
2019-05-05T05:01:44.008Z,4.30
2019-05-05T05:04:36.404Z,4.30
2019-05-05T05:07:07.162Z,4.40
2019-05-05T05:09:38.184Z,4.40
2019-05-05T05:12:08.686Z,4.40
2019-05-05T05:14:39.752Z,4.40
2019-05-05T05:17:14.681Z,4.50
2019-05-05T05:19:45.199Z,4.50
2019-05-05T05:22:16.296Z,4.60
2019-05-05T05:24:48.419Z,4.60
2019-05-05T05:27:18.987Z,4.60
2019-05-05T05:29:49.477Z,4.70
2019-05-05T05:32:19.932Z,4.70
2019-05-05T05:34:50.861Z,4.60
2019-05-05T05:37:23.861Z,4.90
2019-05-05T05:40:00.512Z,5.30
2019-05-05T05:42:33.453Z,5.60
2019-05-05T05:45:19.371Z,5.60
2019-05-05T05:48:08.167Z,5.70
2019-05-05T05:50:57.969Z,5.70
2019-05-05T05:53:28.513Z,5.90
2019-05-05T05:55:59.507Z,5.80
2019-05-05T05:58:30.428Z,5.90
2019-05-05T06:01:01.514Z,6.00
2019-05-05T06:03:33.773Z,6.10
2019-05-05T06:06:04.884Z,6.20
2019-05-05T06:08:36.420Z,6.20
2019-05-05T06:11:06.992Z,6.30
2019-05-05T06:13:38.071Z,6.50
2019-05-05T06:16:09.064Z,6.50
2019-05-05T06:18:40.898Z,6.70
2019-05-05T06:21:13.590Z,6.90
2019-05-05T06:23:44.126Z,6.60
2019-05-05T06:26:15.328Z,6.80
2019-05-05T06:28:46.390Z,6.70
2019-05-05T06:31:16.940Z,6.80
2019-05-05T06:33:47.964Z,6.70
2019-05-05T06:36:19.034Z,6.50
2019-05-05T06:38:49.515Z,6.20
2019-05-05T06:41:43.453Z,6.20
2019-05-05T06:44:24.766Z,5.90
2019-05-05T06:47:01.402Z,5.60
2019-05-05T06:49:34.371Z,5.50
2019-05-05T06:52:04.777Z,5.40
2019-05-05T06:54:35.179Z,5.40
2019-05-05T06:57:05.702Z,5.40
2019-05-05T06:59:36.624Z,5.20
2019-05-05T07:02:07.185Z,5.30
2019-05-05T07:04:38.079Z,5.30
2019-05-05T07:07:09.084Z,5.30
2019-05-05T07:09:39.977Z,5.30
2019-05-05T07:12:10.494Z,5.10
2019-05-05T07:14:40.953Z,5.10
2019-05-05T07:17:14.085Z,5.10
2019-05-05T07:19:45.145Z,5.20
2019-05-05T07:22:17.677Z,5.20
2019-05-05T07:24:49.375Z,5.30
2019-05-05T07:27:19.856Z,5.40
2019-05-05T07:29:50.328Z,5.50
2019-05-05T07:32:20.859Z,5.50
2019-05-05T07:35:10.216Z,5.60
2019-05-05T07:37:43.536Z,5.60
2019-05-05T07:40:14.507Z,5.60
2019-05-05T07:42:45.597Z,5.50
2019-05-05T07:45:22.783Z,5.50
2019-05-05T07:47:50.990Z,5.60
2019-05-05T07:50:31.297Z,5.70
2019-05-05T07:52:54.653Z,5.80
2019-05-05T07:55:25.256Z,5.80
2019-05-05T07:57:55.791Z,6.10
2019-05-05T08:00:26.785Z,6.20
2019-05-05T08:02:57.309Z,6.50
2019-05-05T08:05:27.812Z,6.70
2019-05-05T08:07:58.651Z,6.80
2019-05-05T08:10:29.225Z,7.00
2019-05-05T08:13:00.136Z,7.10
2019-05-05T08:15:30.747Z,7.10
2019-05-05T08:18:13.989Z,7.30
2019-05-05T08:20:48.352Z,7.30
2019-05-05T08:23:37.734Z,7.30
2019-05-05T08:26:14.226Z,7.40
2019-05-05T08:28:50.044Z,7.30
2019-05-05T08:31:28.504Z,7.10
2019-05-05T08:33:58.944Z,7.20
2019-05-05T08:36:30.012Z,7.30
2019-05-05T08:39:00.495Z,7.20
2019-05-05T08:41:33.824Z,7.10
2019-05-05T08:44:05.016Z,7.30
2019-05-05T08:46:36.906Z,7.40
2019-05-05T08:49:07.408Z,7.40
2019-05-05T08:51:37.872Z,7.40
2019-05-05T08:54:08.780Z,7.30
2019-05-05T08:56:39.300Z,7.30
2019-05-05T08:59:10.224Z,7.40
2019-05-05T09:01:40.740Z,7.60
2019-05-05T09:04:11.240Z,7.90
2019-05-05T09:06:43.726Z,8.00
2019-05-05T09:09:14.616Z,8.10
2019-05-05T09:11:46.123Z,8.30
2019-05-05T09:14:16.627Z,8.50
2019-05-05T09:16:47.216Z,8.70
2019-05-05T09:19:19.591Z,9.00
2019-05-05T09:21:50.415Z,9.30
2019-05-05T09:24:29.392Z,9.40
2019-05-05T09:27:21.932Z,9.20
2019-05-05T09:29:54.303Z,9.40
2019-05-05T09:32:25.324Z,9.20
2019-05-05T09:34:55.871Z,9.10
2019-05-05T09:37:27.299Z,9.00
2019-05-05T09:39:58.224Z,9.00
2019-05-05T09:42:30.204Z,8.70
2019-05-05T09:45:01.123Z,8.60
2019-05-05T09:47:31.690Z,8.60
2019-05-05T09:50:03.918Z,8.50
2019-05-05T09:52:34.747Z,8.60
2019-05-05T09:55:06.666Z,8.60
2019-05-05T09:57:38.316Z,8.60
2019-05-05T10:00:13.860Z,9.00
2019-05-05T10:02:44.779Z,9.20
2019-05-05T10:05:15.819Z,9.50
2019-05-05T10:07:46.924Z,9.90
2019-05-05T10:10:19.263Z,10.20
2019-05-05T10:12:52.272Z,10.70
2019-05-05T10:15:21.941Z,11.10
2019-05-05T10:17:54.198Z,11.50
2019-05-05T10:20:24.808Z,11.50
2019-05-05T10:22:55.373Z,11.20
2019-05-05T10:25:39.575Z,11.00
2019-05-05T10:28:10.120Z,11.10
2019-05-05T10:30:40.691Z,10.80
2019-05-05T10:33:11.356Z,10.70
2019-05-05T10:35:43.730Z,10.40
2019-05-05T10:38:14.880Z,10.30
2019-05-05T10:40:48.308Z,10.40
2019-05-05T10:43:18.008Z,10.30
2019-05-05T10:45:48.563Z,10.20
2019-05-05T10:48:19.463Z,9.80
2019-05-05T10:50:49.935Z,9.40
2019-05-05T10:53:21.176Z,9.40
2019-05-05T10:55:53.823Z,9.30
2019-05-05T10:58:24.474Z,8.80
2019-05-05T11:00:59.317Z,8.50
2019-05-05T11:03:30.308Z,8.20
2019-05-05T11:06:04.339Z,8.10
2019-05-05T11:08:35.524Z,7.90
2019-05-05T11:11:06.025Z,7.70
2019-05-05T11:13:37.180Z,7.60
2019-05-05T11:16:08.588Z,7.60
2019-05-05T11:18:39.257Z,7.50
2019-05-05T11:21:09.829Z,7.40
2019-05-05T11:23:40.504Z,7.40
2019-05-05T11:26:11.445Z,7.40
2019-05-05T11:28:44.399Z,7.50
2019-05-05T11:31:15.635Z,7.50
2019-05-05T11:33:54.330Z,7.50
2019-05-05T11:36:29.967Z,7.70
2019-05-05T11:39:00.597Z,7.90
2019-05-05T11:41:33.757Z,8.10
2019-05-05T11:44:04.592Z,8.40
2019-05-05T11:46:35.113Z,8.70
2019-05-05T11:49:06.308Z,8.90
2019-05-05T11:51:36.775Z,9.30
2019-05-05T11:54:07.791Z,9.50
2019-05-05T11:56:38.724Z,9.70
2019-05-05T11:59:09.256Z,10.20
2019-05-05T12:01:41.267Z,10.40
2019-05-05T12:04:14.628Z,10.60
2019-05-05T12:06:45.411Z,10.80
2019-05-05T12:09:50.182Z,11.00
2019-05-05T12:12:21.840Z,11.30
2019-05-05T12:14:54.054Z,11.20
2019-05-05T12:17:37.143Z,11.10
2019-05-05T12:20:08.611Z,10.70
2019-05-05T12:22:39.654Z,10.50
2019-05-05T12:25:28.772Z,10.20
2019-05-05T12:28:18.429Z,9.80
2019-05-05T12:30:49.004Z,9.90
2019-05-05T12:33:20.263Z,9.90
2019-05-05T12:35:58.277Z,10.10
2019-05-05T12:38:29.141Z,9.90
2019-05-05T12:41:00.172Z,9.80
2019-05-05T12:43:30.781Z,9.80
2019-05-05T12:46:15.795Z,9.80
2019-05-05T12:48:47.268Z,9.80
2019-05-05T12:51:17.850Z,9.90
2019-05-05T12:53:49.762Z,10.00
2019-05-05T12:56:20.968Z,10.00
2019-05-05T12:58:51.523Z,10.10
2019-05-05T13:01:26.281Z,10.30
2019-05-05T13:03:56.832Z,10.20
2019-05-05T13:06:27.469Z,10.00
2019-05-05T13:08:57.973Z,9.90
2019-05-05T13:11:28.979Z,9.50
2019-05-05T13:13:59.945Z,9.30
2019-05-05T13:16:30.581Z,9.10
2019-05-05T13:19:04.386Z,9.00
2019-05-05T13:22:00.136Z,8.80
2019-05-05T13:24:49.540Z,8.70
2019-05-05T13:27:24.871Z,8.70
2019-05-05T13:29:56.583Z,8.60
2019-05-05T13:32:28.186Z,8.50
2019-05-05T13:34:59.372Z,8.20
2019-05-05T13:37:30.425Z,8.00
2019-05-05T13:40:01.012Z,8.00
2019-05-05T13:42:32.139Z,7.80
2019-05-05T13:45:19.356Z,7.80
2019-05-05T13:47:49.953Z,7.70
2019-05-05T13:50:30.156Z,7.80
2019-05-05T13:53:00.704Z,7.80
2019-05-05T13:55:34.534Z,8.00
2019-05-05T13:58:08.571Z,8.10
2019-05-05T14:00:38.201Z,8.20
2019-05-05T14:03:11.610Z,8.40
2019-05-05T14:05:43.726Z,8.60
2019-05-05T14:08:15.046Z,8.70
2019-05-05T14:10:45.936Z,8.80
2019-05-05T14:13:16.388Z,8.90
2019-05-05T14:15:46.840Z,9.00
2019-05-05T14:18:18.416Z,9.10
2019-05-05T14:20:49.546Z,9.30
2019-05-05T14:23:20.731Z,9.50
2019-05-05T14:25:51.179Z,10.10
2019-05-05T14:28:23.334Z,11.10
2019-05-05T14:31:16.314Z,11.60
2019-05-05T14:33:54.191Z,12.60
2019-05-05T14:36:33.517Z,13.50
2019-05-05T14:39:06.218Z,14.00
2019-05-05T14:41:39.117Z,14.50
2019-05-05T14:44:09.712Z,14.70
2019-05-05T14:46:40.686Z,14.80
2019-05-05T14:49:11.249Z,14.70
2019-05-05T14:51:44.525Z,14.50
2019-05-05T14:54:15.330Z,14.10
2019-05-05T14:56:46.650Z,13.50
2019-05-05T14:59:17.061Z,12.80
2019-05-05T15:01:47.860Z,12.20
2019-05-05T15:04:20.307Z,11.70
2019-05-05T15:07:10.091Z,11.20
2019-05-05T15:09:54.662Z,10.60
2019-05-05T15:12:34.155Z,10.00
2019-05-05T15:15:07.328Z,9.60
2019-05-05T15:17:40.002Z,9.30
2019-05-05T15:20:13.944Z,9.10
2019-05-05T15:22:44.348Z,9.00
2019-05-05T15:25:15.834Z,8.90
2019-05-05T15:27:46.948Z,8.90
2019-05-05T15:30:18.056Z,8.90
2019-05-05T15:32:49.031Z,9.10
2019-05-05T15:35:19.946Z,9.20
2019-05-05T15:37:54.515Z,9.40
2019-05-05T15:40:25.746Z,9.60
2019-05-05T15:42:56.807Z,9.60
2019-05-05T15:45:27.755Z,9.50
2019-05-05T15:47:59.443Z,9.30
2019-05-05T15:50:30.446Z,9.00
2019-05-05T15:53:03.700Z,8.70
2019-05-05T15:55:34.489Z,8.40
2019-05-05T15:58:05.560Z,8.20
2019-05-05T16:00:36.085Z,8.00
2019-05-05T16:03:07.360Z,7.90
2019-05-05T16:05:38.048Z,8.00
2019-05-05T16:08:08.436Z,8.10
2019-05-05T16:10:39.147Z,8.10
2019-05-05T16:13:10.226Z,8.10
2019-05-05T16:15:59.492Z,8.20
2019-05-05T16:19:05.533Z,8.20
2019-05-05T16:21:46.942Z,8.40
2019-05-05T16:24:26.219Z,8.40
2019-05-05T16:26:56.655Z,8.60
2019-05-05T16:29:27.151Z,8.70
2019-05-05T16:31:57.684Z,8.80
2019-05-05T16:34:28.124Z,8.80
2019-05-05T16:36:59.220Z,8.70
2019-05-05T16:39:30.225Z,8.70
2019-05-05T16:42:00.924Z,8.70
2019-05-05T16:44:31.607Z,8.60
2019-05-05T16:47:04.692Z,8.60
2019-05-05T16:49:35.556Z,8.50
2019-05-05T16:52:14.597Z,8.50
2019-05-05T16:55:19.800Z,8.50
2019-05-05T16:57:51.200Z,8.50
2019-05-05T17:00:25.654Z,8.50
2019-05-05T17:02:55.451Z,8.40
2019-05-05T17:05:25.988Z,8.30
2019-05-05T17:07:58.584Z,8.20
2019-05-05T17:10:29.172Z,8.20
2019-05-05T17:13:02.305Z,8.20
2019-05-05T17:15:53.549Z,8.10
2019-05-05T17:18:45.725Z,8.00
2019-05-05T17:21:20.757Z,8.00
2019-05-05T17:23:51.299Z,7.90
2019-05-05T17:26:24.127Z,7.80
2019-05-05T17:28:54.242Z,7.80
2019-05-05T17:31:26.340Z,7.70
2019-05-05T17:33:57.136Z,7.60
2019-05-05T17:36:28.666Z,7.60
2019-05-05T17:38:59.347Z,7.50
2019-05-05T17:41:58.351Z,7.40
2019-05-05T17:44:49.663Z,7.40
2019-05-05T17:47:34.308Z,7.30
2019-05-05T17:50:11.340Z,7.30
2019-05-05T17:52:55.403Z,7.20
2019-05-05T17:55:34.304Z,7.10
2019-05-05T17:58:05.514Z,7.00
2019-05-05T18:00:43.911Z,6.90
2019-05-05T18:03:14.293Z,6.90
2019-05-05T18:06:10.395Z,6.90
2019-05-05T18:08:53.927Z,6.80
2019-05-05T18:11:44.233Z,6.80
2019-05-05T18:14:20.151Z,6.80
2019-05-05T18:16:51.380Z,6.70
2019-05-05T18:19:22.245Z,6.60
2019-05-05T18:21:54.595Z,6.50
2019-05-05T18:24:24.911Z,6.50
2019-05-05T18:26:55.263Z,6.50
2019-05-05T18:29:25.771Z,6.60
2019-05-05T18:31:56.252Z,6.70
2019-05-05T18:34:26.807Z,6.90
2019-05-05T18:36:57.240Z,7.00
2019-05-05T18:39:27.728Z,7.10
2019-05-05T18:42:09.631Z,7.20
2019-05-05T18:44:44.414Z,7.30
2019-05-05T18:47:20.916Z,7.30
2019-05-05T18:49:53.977Z,7.10
2019-05-05T18:52:25.150Z,7.00
2019-05-05T18:54:55.809Z,7.00
2019-05-05T18:57:26.420Z,7.20
2019-05-05T18:59:58.108Z,7.10
2019-05-05T19:02:39.903Z,7.20
2019-05-05T19:05:34.446Z,7.20
2019-05-05T19:08:09.018Z,7.30
2019-05-05T19:10:40.144Z,7.30
2019-05-05T19:13:10.733Z,7.40
2019-05-05T19:15:41.676Z,7.40
2019-05-05T19:18:14.056Z,7.30
2019-05-05T19:20:51.049Z,7.20
2019-05-05T19:23:22.474Z,7.00
2019-05-05T19:25:55.827Z,6.90
2019-05-05T19:28:25.738Z,6.80
2019-05-05T19:30:56.748Z,6.60
2019-05-05T19:33:27.861Z,6.60
2019-05-05T19:35:58.815Z,6.50
2019-05-05T19:38:29.343Z,6.50
2019-05-05T19:41:00.493Z,6.50
2019-05-05T19:43:31.536Z,6.50
2019-05-05T19:46:02.461Z,6.50
2019-05-05T19:48:33.993Z,6.40
2019-05-05T19:51:08.175Z,6.40
2019-05-05T19:53:39.168Z,6.40
2019-05-05T19:56:10.105Z,6.40
2019-05-05T19:58:55.620Z,6.40
2019-05-05T20:01:14.411Z,6.30
2019-05-05T20:03:45.040Z,6.30
2019-05-05T20:06:15.542Z,6.20
2019-05-05T20:08:46.580Z,6.20
2019-05-05T20:11:17.040Z,6.20
2019-05-05T20:13:48.096Z,6.20
2019-05-05T20:16:40.604Z,6.20
2019-05-05T20:19:13.574Z,6.20
2019-05-05T20:21:43.998Z,6.20
2019-05-05T20:24:15.375Z,6.10
2019-05-05T20:26:46.400Z,6.10
2019-05-05T20:29:17.290Z,6.10
2019-05-05T20:31:49.113Z,6.10
2019-05-05T20:34:35.535Z,6.10
2019-05-05T20:37:08.520Z,6.20
2019-05-05T20:39:43.717Z,6.20
2019-05-05T20:42:14.878Z,6.20
2019-05-05T20:44:46.277Z,6.30
2019-05-05T20:47:17.247Z,6.20
2019-05-05T20:49:48.655Z,6.30
2019-05-05T20:52:19.171Z,6.30
2019-05-05T20:54:50.061Z,6.30
2019-05-05T20:57:20.952Z,6.20
2019-05-05T20:59:53.067Z,6.20
2019-05-05T21:02:25.142Z,6.20
2019-05-05T21:04:59.905Z,6.30
2019-05-05T21:07:35.199Z,6.30
2019-05-05T21:10:07.804Z,6.30
2019-05-05T21:12:46.970Z,6.30
2019-05-05T21:15:30.026Z,6.30
2019-05-05T21:18:04.849Z,6.20
2019-05-05T21:20:39.203Z,6.30
2019-05-05T21:23:17.975Z,6.30
2019-05-05T21:25:56.003Z,6.30
2019-05-05T21:28:26.856Z,6.20
2019-05-05T21:30:57.397Z,6.30
2019-05-05T21:33:28.006Z,6.30
2019-05-05T21:35:59.061Z,6.20
2019-05-05T21:38:30.131Z,6.10
2019-05-05T21:41:00.771Z,6.10
2019-05-05T21:43:31.340Z,6.10
2019-05-05T21:46:04.286Z,6.10
2019-05-05T21:48:35.157Z,6.10
2019-05-05T21:51:30.800Z,6.10
2019-05-05T21:54:19.674Z,6.10
2019-05-05T21:57:14.062Z,6.00
2019-05-05T21:59:54.836Z,6.00
2019-05-05T22:02:18.345Z,6.00
2019-05-05T22:04:48.949Z,6.00
2019-05-05T22:07:19.503Z,6.00
2019-05-05T22:09:50.128Z,6.00
2019-05-05T22:12:21.241Z,6.00
2019-05-05T22:14:55.072Z,6.00
2019-05-05T22:17:27.340Z,6.00
2019-05-05T22:20:06.714Z,6.00
2019-05-05T22:22:38.844Z,5.90
2019-05-05T22:25:09.919Z,6.00
2019-05-05T22:27:43.999Z,5.90
2019-05-05T22:30:15.799Z,5.90
2019-05-05T22:32:46.782Z,5.80
2019-05-05T22:35:17.763Z,5.90
2019-05-05T22:37:48.256Z,5.80
2019-05-05T22:40:24.303Z,5.80
2019-05-05T22:42:54.700Z,5.70
2019-05-05T22:45:25.310Z,5.70
2019-05-05T22:47:55.842Z,5.70
2019-05-05T22:50:26.860Z,5.70
2019-05-05T22:52:57.439Z,5.60
2019-05-05T22:55:28.415Z,5.60
2019-05-05T22:57:59.465Z,5.50
2019-05-05T23:00:30.775Z,5.50
2019-05-05T23:03:10.160Z,5.50
2019-05-05T23:05:50.081Z,5.40
2019-05-05T23:08:20.611Z,5.30
2019-05-05T23:10:51.105Z,5.30
2019-05-05T23:13:22.104Z,5.30
2019-05-05T23:16:12.055Z,5.20
2019-05-05T23:18:44.278Z,5.20
2019-05-05T23:21:25.260Z,5.10
2019-05-05T23:24:30.152Z,5.10
2019-05-05T23:27:00.677Z,5.10
2019-05-05T23:29:31.596Z,5.10
2019-05-05T23:32:02.122Z,5.00
2019-05-05T23:34:33.837Z,5.00
2019-05-05T23:37:04.402Z,5.00
2019-05-05T23:39:34.854Z,5.10
2019-05-05T23:42:05.323Z,5.10
2019-05-05T23:44:35.852Z,5.00
2019-05-05T23:47:06.840Z,4.90
2019-05-05T23:49:37.786Z,4.90
2019-05-05T23:52:08.364Z,4.80
2019-05-05T23:54:39.688Z,4.70
2019-05-05T23:57:10.608Z,4.80
2019-05-05T23:59:41.144Z,4.70
